Time,TemperatureF,DewpointF,PressureIn,WindDirection,WindDirectionDegrees,WindSpeedMPH,WindSpeedGustMPH,Humidity,HourlyPrecipIn,Conditions,Clouds,dailyrainin,SolarRadiationWatts/m^2,SoftwareType,DateUTC
2013-01-24 00:22:00,51.0,45.0,30.13,ESE,103,15.0,35.0,79,0.02,,,0.02,0.000000,,2013-01-24 08:22:00,
2013-01-24 00:32:00,51.0,45.0,30.13,ESE,103,15.0,35.0,79,0.02,,,0.02,0.000000,,2013-01-24 08:32:00,
2013-01-24 00:42:00,51.0,45.0,30.13,ESE,103,15.0,35.0,79,0.02,,,0.02,0.000000,,2013-01-24 08:42:00,
2013-01-24 00:52:00,51.0,45.0,30.13,ESE,103,15.0,35.0,79,0.02,,,0.02,0.000000,,2013-01-24 08:52:00,
2013-01-24 01:22:00,50.0,46.0,30.11,NNE,26,19.0,67.0,85,0.08,,,0.10,0.000000,,2013-01-24 09:22:00,
2013-01-24 01:33:00,50.0,46.0,30.11,NNE,26,19.0,67.0,85,0.08,,,0.10,0.000000,,2013-01-24 09:33:00,
2013-01-24 01:42:00,50.0,46.0,30.11,NNE,26,19.0,67.0,85,0.08,,,0.10,0.000000,,2013-01-24 09:42:00,
2013-01-24 01:52:00,50.0,46.0,30.11,NNE,26,19.0,67.0,85,0.08,,,0.10,0.000000,,2013-01-24 09:52:00,
2013-01-24 02:22:00,51.0,49.0,30.12,SW,230,17.0,42.0,92,0.09,,,0.19,0.000000,,2013-01-24 10:22:00,
2013-01-24 02:33:00,51.0,49.0,30.12,SW,230,17.0,42.0,92,0.09,,,0.19,0.000000,,2013-01-24 10:33:00,
2013-01-24 02:42:00,51.0,49.0,30.12,SW,230,17.0,42.0,92,0.09,,,0.19,0.000000,,2013-01-24 10:42:00,
2013-01-24 02:52:00,51.0,49.0,30.12,SW,230,17.0,42.0,92,0.09,,,0.19,0.000000,,2013-01-24 10:52:00,
2013-01-24 03:22:00,52.0,50.0,30.11,East,79,21.0,47.0,93,0.11,,,0.30,0.000000,,2013-01-24 11:22:00,
2013-01-24 03:33:00,52.0,50.0,30.11,East,79,21.0,47.0,93,0.11,,,0.30,0.000000,,2013-01-24 11:33:00,
2013-01-24 03:42:00,52.0,50.0,30.11,East,79,21.0,47.0,93,0.11,,,0.30,0.000000,,2013-01-24 11:42:00,
2013-01-24 03:52:00,52.0,50.0,30.11,East,79,21.0,47.0,93,0.11,,,0.30,0.000000,,2013-01-24 11:52:00,
2013-01-24 04:22:00,50.0,49.0,30.12,NNW,329,16.0,35.0,95,0.05,,,0.35,0.000000,,2013-01-24 12:22:00,
2013-01-24 04:33:00,50.0,49.0,30.12,NNW,329,16.0,35.0,95,0.05,,,0.35,0.000000,,2013-01-24 12:33:00,
2013-01-24 04:42:00,50.0,49.0,30.12,NNW,329,16.0,35.0,95,0.05,,,0.35,0.000000,,2013-01-24 12:42:00,
2013-01-24 04:52:00,50.0,49.0,30.12,NNW,329,16.0,35.0,95,0.05,,,0.35,0.000000,,2013-01-24 12:52:00,
2013-01-24 05:22:00,51.0,50.0,30.14,SW,224,15.0,40.0,97,0.08,,,0.43,0.000000,,2013-01-24 13:22:00,
2013-01-24 05:33:00,51.0,50.0,30.14,SW,224,15.0,40.0,97,0.08,,,0.43,0.000000,,2013-01-24 13:33:00,
2013-01-24 05:42:00,51.0,50.0,30.14,SW,224,15.0,40.0,97,0.08,,,0.43,0.000000,,2013-01-24 13:42:00,
2013-01-24 05:52:00,51.0,50.0,30.14,SW,224,15.0,40.0,97,0.08,,,0.43,0.000000,,2013-01-24 13:52:00,
2013-01-24 06:22:00,53.0,52.0,30.18,East,93,12.0,26.0,98,0.11,,,0.54,0.000000,,2013-01-24 14:22:00,
2013-01-24 06:33:00,53.0,52.0,30.18,East,93,12.0,26.0,98,0.11,,,0.54,0.000000,,2013-01-24 14:33:00,
2013-01-24 06:43:00,53.0,52.0,30.18,East,93,12.0,26.0,98,0.11,,,0.54,0.000000,,2013-01-24 14:43:00,
2013-01-24 06:53:00,53.0,52.0,30.18,East,93,12.0,26.0,98,0.11,,,0.54,0.000000,,2013-01-24 14:53:00,
2013-01-24 07:22:00,53.0,52.0,30.19,ENE,74,12.0,33.0,98,0.11,,,0.65,0.000000,,2013-01-24 15:22:00,
2013-01-24 07:33:00,53.0,52.0,30.19,ENE,74,12.0,33.0,98,0.11,,,0.65,0.000000,,2013-01-24 15:33:00,
2013-01-24 07:42:00,53.0,52.0,30.19,ENE,74,12.0,33.0,98,0.11,,,0.65,0.000000,,2013-01-24 15:42:00,
2013-01-24 07:52:00,53.0,52.0,30.19,ENE,74,12.0,33.0,98,0.11,,,0.65,0.000000,,2013-01-24 15:52:00,
2013-01-24 08:22:00,51.0,50.0,30.19,East,88,11.0,36.0,98,0.15,,,0.80,0.000000,,2013-01-24 16:22:00,
2013-01-24 08:33:00,51.0,50.0,30.19,East,88,11.0,36.0,98,0.15,,,0.80,0.000000,,2013-01-24 16:33:00,
2013-01-24 08:42:00,51.0,50.0,30.19,East,88,11.0,36.0,98,0.15,,,0.80,0.000000,,2013-01-24 16:42:00,
2013-01-24 09:32:00,51.0,50.0,30.20,East,85,12.0,35.0,98,0.12,,,0.92,4.000000,,2013-01-24 17:32:00,
2013-01-24 09:42:00,51.0,50.0,30.20,East,85,12.0,35.0,98,0.12,,,0.92,4.000000,,2013-01-24 17:42:00,
2013-01-24 09:52:00,51.0,50.0,30.20,East,85,12.0,35.0,98,0.12,,,0.92,4.000000,,2013-01-24 17:52:00,
2013-01-24 10:22:00,51.0,50.0,30.22,East,90,14.0,27.0,98,0.04,,,0.96,33.000000,,2013-01-24 18:22:00,
2013-01-24 10:32:00,51.0,50.0,30.22,East,90,14.0,27.0,98,0.04,,,0.96,33.000000,,2013-01-24 18:32:00,
2013-01-24 10:42:00,51.0,50.0,30.22,East,90,14.0,27.0,98,0.04,,,0.96,33.000000,,2013-01-24 18:42:00,
2013-01-24 10:52:00,51.0,50.0,30.22,East,90,14.0,27.0,98,0.04,,,0.96,33.000000,,2013-01-24 18:52:00,
2013-01-24 11:22:00,53.0,52.0,30.27,ESE,104,10.0,25.0,98,0.01,,,0.97,119.000000,,2013-01-24 19:22:00,
2013-01-24 11:32:00,53.0,52.0,30.27,ESE,104,10.0,25.0,98,0.01,,,0.97,119.000000,,2013-01-24 19:32:00,
2013-01-24 11:42:00,53.0,52.0,30.27,ESE,104,10.0,25.0,98,0.01,,,0.97,119.000000,,2013-01-24 19:42:00,
2013-01-24 11:51:00,53.0,52.0,30.27,ESE,104,10.0,25.0,98,0.01,,,0.97,119.000000,,2013-01-24 19:51:00,
2013-01-24 12:22:00,53.0,52.0,30.26,ESE,103,9.0,23.0,98,0.02,,,0.99,110.000000,,2013-01-24 20:22:00,
2013-01-24 12:32:00,53.0,52.0,30.26,ESE,103,9.0,23.0,98,0.02,,,0.99,110.000000,,2013-01-24 20:32:00,
2013-01-24 12:42:00,53.0,52.0,30.26,ESE,103,9.0,23.0,98,0.02,,,0.99,110.000000,,2013-01-24 20:42:00,
2013-01-24 12:52:00,53.0,52.0,30.26,ESE,103,9.0,23.0,98,0.02,,,0.99,110.000000,,2013-01-24 20:52:00,
2013-01-24 13:22:00,54.0,51.0,30.30,East,85,12.0,28.0,90,0.01,,,1.00,159.000000,,2013-01-24 21:22:00,
2013-01-24 13:32:00,54.0,51.0,30.30,East,85,12.0,28.0,90,0.01,,,1.00,159.000000,,2013-01-24 21:32:00,
2013-01-24 13:42:00,54.0,51.0,30.30,East,85,12.0,28.0,90,0.01,,,1.00,159.000000,,2013-01-24 21:42:00,
2013-01-24 13:52:00,54.0,51.0,30.30,East,85,12.0,28.0,90,0.01,,,1.00,159.000000,,2013-01-24 21:52:00,
2013-01-24 14:22:00,56.0,51.0,30.31,ENE,70,8.0,21.0,82,0.00,,,1.00,286.000000,,2013-01-24 22:22:00,
2013-01-24 14:32:00,56.0,51.0,30.31,ENE,70,8.0,21.0,82,0.00,,,1.00,286.000000,,2013-01-24 22:32:00,
2013-01-24 14:42:00,56.0,51.0,30.31,ENE,70,8.0,21.0,82,0.00,,,1.00,286.000000,,2013-01-24 22:42:00,
2013-01-24 14:52:00,56.0,51.0,30.31,ENE,70,8.0,21.0,82,0.00,,,1.00,286.000000,,2013-01-24 22:52:00,
2013-01-24 15:22:00,56.0,51.0,30.12,East,99,11.0,19.0,84,0.00,,,1.00,260.000000,,2013-01-24 23:22:00,
2013-01-24 15:32:00,56.0,51.0,30.12,East,99,11.0,19.0,84,0.00,,,1.00,260.000000,,2013-01-24 23:32:00,
2013-01-24 15:42:00,56.0,51.0,30.12,East,99,11.0,19.0,84,0.00,,,1.00,260.000000,,2013-01-24 23:42:00,
2013-01-24 15:52:00,56.0,51.0,30.12,East,99,11.0,19.0,84,0.00,,,1.00,260.000000,,2013-01-24 23:52:00,
2013-01-24 16:22:00,59.0,53.0,30.11,SSE,152,4.0,11.0,81,0.00,,,1.00,252.000000,,2013-01-25 00:22:00,
2013-01-24 16:32:00,59.0,53.0,30.11,SSE,152,4.0,11.0,81,0.00,,,1.00,252.000000,,2013-01-25 00:32:00,
2013-01-24 16:41:00,59.0,53.0,30.11,SSE,152,4.0,11.0,81,0.00,,,1.00,252.000000,,2013-01-25 00:41:00,
2013-01-24 16:51:00,59.0,53.0,30.11,SSE,152,4.0,11.0,81,0.00,,,1.00,252.000000,,2013-01-25 00:51:00,
2013-01-24 17:21:00,57.0,52.0,30.11,South,183,2.0,14.0,84,0.00,,,-99.99,159.000000,,2013-01-25 01:21:00,
2013-01-24 17:32:00,57.0,52.0,30.11,South,183,2.0,14.0,84,0.00,,,-99.99,159.000000,,2013-01-25 01:32:00,
2013-01-24 17:42:00,57.0,52.0,30.11,South,183,2.0,14.0,84,0.00,,,-99.99,159.000000,,2013-01-25 01:42:00,
2013-01-24 17:51:00,57.0,52.0,30.11,South,183,2.0,14.0,84,0.00,,,-99.99,159.000000,,2013-01-25 01:51:00,
2013-01-24 18:22:00,56.0,52.0,30.13,ENE,72,3.0,6.0,85,0.00,,,1.00,41.000000,,2013-01-25 02:22:00,
2013-01-24 18:32:00,56.0,52.0,30.13,ENE,72,3.0,6.0,85,0.00,,,1.00,41.000000,,2013-01-25 02:32:00,
2013-01-24 18:42:00,56.0,52.0,30.13,ENE,72,3.0,6.0,85,0.00,,,1.00,41.000000,,2013-01-25 02:42:00,
2013-01-24 18:52:00,56.0,52.0,30.13,ENE,72,3.0,6.0,85,0.00,,,1.00,41.000000,,2013-01-25 02:52:00,
2013-01-24 19:22:00,56.0,53.0,30.12,NE,41,3.0,11.0,89,0.00,,,1.00,1.000000,,2013-01-25 03:22:00,
2013-01-24 19:32:00,56.0,53.0,30.12,NE,41,3.0,11.0,89,0.00,,,1.00,1.000000,,2013-01-25 03:32:00,
2013-01-24 19:41:00,56.0,53.0,30.12,NE,41,3.0,11.0,89,0.00,,,1.00,1.000000,,2013-01-25 03:41:00,
2013-01-24 19:52:00,56.0,53.0,30.12,NE,41,3.0,11.0,89,0.00,,,1.00,1.000000,,2013-01-25 03:52:00,
2013-01-24 20:22:00,55.0,51.0,30.12,North,359,5.0,14.0,87,0.00,,,1.00,0.000000,,2013-01-25 04:22:00,
2013-01-24 20:32:00,55.0,51.0,30.12,North,359,5.0,14.0,87,0.00,,,1.00,0.000000,,2013-01-25 04:32:00,
2013-01-24 20:41:00,55.0,51.0,30.12,North,359,5.0,14.0,87,0.00,,,1.00,0.000000,,2013-01-25 04:41:00,
2013-01-24 20:51:00,55.0,51.0,30.12,North,359,5.0,14.0,87,0.00,,,1.00,0.000000,,2013-01-25 04:51:00,
2013-01-24 21:22:00,58.0,53.0,30.12,NE,54,5.0,13.0,83,0.00,,,1.00,0.000000,,2013-01-25 05:22:00,
2013-01-24 21:32:00,58.0,53.0,30.12,NE,54,5.0,13.0,83,0.00,,,1.00,0.000000,,2013-01-25 05:32:00,
2013-01-24 21:43:00,58.0,53.0,30.12,NE,54,5.0,13.0,83,0.00,,,1.00,0.000000,,2013-01-25 05:43:00,
2013-01-24 21:51:00,58.0,53.0,30.12,NE,54,5.0,13.0,83,0.00,,,1.00,0.000000,,2013-01-25 05:51:00,
2013-01-24 22:21:00,58.0,52.0,30.12,NNE,24,3.0,11.0,80,0.00,,,1.00,0.000000,,2013-01-25 06:21:00,
2013-01-24 22:32:00,58.0,52.0,30.12,NNE,24,3.0,11.0,80,0.00,,,1.00,0.000000,,2013-01-25 06:32:00,
2013-01-24 22:41:00,58.0,52.0,30.12,NNE,24,3.0,11.0,80,0.00,,,1.00,0.000000,,2013-01-25 06:41:00,
2013-01-24 22:51:00,58.0,52.0,30.12,NNE,24,3.0,11.0,80,0.00,,,1.00,0.000000,,2013-01-25 06:51:00,
2013-01-24 23:21:00,58.0,54.0,30.14,NE,36,5.0,17.0,88,0.01,,,1.01,0.000000,,2013-01-25 07:21:00,
2013-01-24 23:31:00,58.0,54.0,30.14,NE,36,5.0,17.0,88,0.01,,,1.01,0.000000,,2013-01-25 07:31:00,
2013-01-24 23:41:00,58.0,54.0,30.14,NE,36,5.0,17.0,88,0.01,,,1.01,0.000000,,2013-01-25 07:41:00,
2013-01-24 23:51:00,58.0,54.0,30.14,NE,36,5.0,17.0,88,0.01,,,1.01,0.000000,,2013-01-25 07:51:00,